Latest Weather Observations for Maningrida Airport

IDD60801

Issued at 12:35 pm CST Sunday 20 April 2014 (issued every 30 minutes, with the page automatically refreshed every 10 minutes)

About weather observations | Map of weather stations | Latest weather observations for NT | Other Formats
Station Details ID: 014405 Name: MANINGRIDA AIRPORT Lat: -12.06 Lon: 134.23 Height: 28.1 m
Data from the previous 72 hours. | See also: Recent months at Maningrida Airport
Date/Time
CST
Temp
°C
App
Temp
°C
Dew
Point
Rel
Hum
%
Delta-T
°C
Wind Press
QNH
hPa
Press
MSL
hPa
Rain
since 9 am
mm
Dir
 
Spd
km/h
Gust
km/h
Spd
kts
Gust
kts
20/12:30pm 31.7 33.7 24.0 63 5.4 SE 20 26 11 14 1008.6 - 0.0
20/12:00pm 31.1 32.6 23.7 64 5.1 SE 22 33 12 18 1009.0 1008.9 0.0
20/11:30am 30.5 32.3 24.2 69 4.4 SE 22 30 12 16 1009.5 - 0.0
20/11:00am 30.2 31.6 23.6 67 4.6 SE 22 30 12 16 1009.9 - 0.0
20/10:30am 29.4 31.0 23.8 72 3.9 SE 22 28 12 15 1010.2 - 0.0
20/10:00am 28.8 30.7 23.7 74 3.5 SE 20 32 11 17 1010.4 - 0.0
20/09:30am 28.1 30.0 23.7 77 3.0 SE 20 30 11 16 1010.3 - 0.0
20/09:00am 27.6 29.5 23.8 80 2.6 SSE 20 30 11 16 1010.0 1009.9 12.4
20/08:30am 26.6 28.4 23.5 83 2.1 SSE 20 28 11 15 1009.9 - 12.4
20/08:00am 25.6 27.5 23.8 90 1.2 SE 20 28 11 15 1009.8 - 12.4
20/07:30am 24.3 26.3 23.6 96 0.5 SSE 19 26 10 14 1009.6 - 12.4
20/07:00am 23.7 26.1 23.7 100 0.0 SSE 17 22 9 12 1009.3 - 12.4
20/06:30am 23.4 25.7 23.4 100 0.0 SSE 17 22 9 12 1009.0 - 12.4
20/06:00am 23.1 25.6 23.1 100 0.0 SSE 15 20 8 11 1008.7 1008.6 12.4
20/05:30am 22.9 26.0 22.9 100 0.0 SSE 11 17 6 9 1008.6 - 12.4
20/05:00am 22.7 25.6 22.5 99 0.1 S 11 15 6 8 1008.3 - 12.4
20/04:30am 22.7 25.6 22.5 99 0.1 S 11 19 6 10 1008.1 - 12.4
20/04:00am 22.5 24.9 22.3 99 0.1 S 13 17 7 9 1008.0 - 12.4
20/03:30am 22.6 25.3 22.1 97 0.3 S 11 17 6 9 1008.1 - 12.4
20/03:00am 22.7 25.0 22.0 96 0.5 S 13 17 7 9 1008.2 1008.1 12.4
20/02:30am 22.8 25.2 22.3 97 0.3 SSE 13 17 7 9 1008.3 - 12.4
20/02:00am 22.9 25.5 22.6 98 0.2 S 13 19 7 10 1008.4 - 12.4
20/01:30am 23.2 26.0 23.0 99 0.1 S 13 17 7 9 1008.8 - 12.4
20/01:00am 23.3 26.3 23.3 100 0.0 S 13 20 7 11 1009.1 - 12.4
20/12:30am 23.4 26.4 23.4 100 0.0 S 13 20 7 11 1009.4 - 12.4
20/12:00am 23.4 25.7 23.4 100 0.0 S 17 22 9 12 1009.6 1009.5 12.4
 
Date/Time
CST
Temp
°C
App
Temp
°C
Dew
Point
Rel
Hum
%
Delta-T
°C
Wind Press
QNH
hPa
Press
MSL
hPa
Rain
since 9 am
mm
Dir
 
Spd
km/h
Gust
km/h
Spd
kts
Gust
kts
19/11:30pm 23.4 26.4 23.4 100 0.0 S 13 20 7 11 1010.1 - 12.4
19/11:00pm 23.3 26.3 23.3 100 0.0 S 13 20 7 11 1010.4 - 12.4
19/10:30pm 22.9 26.0 22.9 100 0.0 S 11 15 6 8 1010.7 - 12.4
19/10:00pm 22.7 26.1 22.7 100 0.0 S 9 11 5 6 1010.9 - 12.4
19/09:30pm 22.8 25.8 22.6 99 0.1 SSE 11 15 6 8 1011.4 - 12.2
19/09:00pm 23.0 26.6 23.0 100 0.0 S 9 11 5 6 1011.4 1011.3 12.2
19/08:30pm 22.9 26.8 22.9 100 0.0 SSE 7 11 4 6 1011.1 - 12.2
19/08:00pm 23.1 26.0 23.1 100 0.0 SE 13 20 7 11 1011.2 - 12.2
19/07:30pm 23.0 26.2 23.0 100 0.0 SE 11 15 6 8 1011.0 - 12.0
19/07:06pm 22.8 26.6 22.8 100 0.0 SSE 7 11 4 6 1010.8 - 12.0
19/07:00pm 23.0 26.9 23.0 100 0.0 SSE 7 9 4 5 1010.7 - 12.0
19/06:55pm 22.9 26.8 22.9 100 0.0 SSE 7 13 4 7 1010.7 - 11.8
19/06:30pm 22.9 26.8 22.9 100 0.0 SSW 7 9 4 5 1010.3 - 11.0
19/06:00pm 23.3 28.4 23.3 100 0.0 NE 2 6 1 3 1010.1 1010.0 10.8
19/05:30pm 22.8 27.2 22.8 100 0.0 SSW 4 7 2 4 1009.7 - 10.8
19/05:00pm 22.7 26.5 22.7 100 0.0 SSW 7 11 4 6 1009.2 - 10.8
19/04:30pm 22.9 28.1 22.9 100 0.0 CALM 0 0 0 0 1009.1 - 10.6
19/04:00pm 22.9 26.4 22.9 100 0.0 NE 9 15 5 8 1009.0 - 10.4
19/03:30pm 22.5 24.3 22.5 100 0.0 S 17 24 9 13 1008.8 - 9.4
19/03:24pm 22.4 23.7 22.4 100 0.0 SSE 19 22 10 12 1008.9 - 9.4
19/03:00pm 22.6 22.3 22.6 100 0.0 SSE 28 35 15 19 1008.5 1008.4 7.0
19/02:42pm 23.5 23.2 23.2 98 0.2 SSE 30 48 16 26 1008.6 - 1.6
19/02:40pm 23.4 22.2 22.7 96 0.5 SSE 33 52 18 28 1008.6 - 0.4
19/02:30pm 25.5 22.9 21.4 78 2.7 SE 37 50 20 27 1008.5 - 0.0
19/02:29pm 26.3 24.2 21.7 76 3.1 SSE 35 50 19 27 1008.4 - 0.0
19/02:00pm 29.2 31.2 23.9 73 3.7 ENE 20 30 11 16 1008.4 - 0.0
19/01:30pm 29.8 31.1 24.0 71 4.0 ENE 24 33 13 18 1008.5 - 0.0
19/01:00pm 29.2 31.2 23.6 72 3.9 ENE 19 26 10 14 1009.3 - 0.0
19/12:30pm 29.4 30.8 22.6 67 4.6 E 19 26 10 14 1009.7 - 0.0
19/12:00pm 29.2 32.9 24.5 76 3.3 E 13 20 7 11 1009.9 1009.8 0.0
19/11:30am 28.8 31.1 24.4 77 3.1 E 20 32 11 17 1010.4 - 0.0
19/11:00am 29.3 30.4 24.4 75 3.4 ESE 26 37 14 20 1010.8 - 0.0
19/10:30am 28.8 30.7 24.4 77 3.1 ESE 22 32 12 17 1011.1 - 0.0
19/10:00am 28.9 30.6 24.0 75 3.4 ESE 22 30 12 16 1011.0 - 0.0
19/09:30am 28.9 31.1 24.2 76 3.3 ESE 20 28 11 15 1011.0 - 0.0
19/09:00am 28.0 31.1 24.8 83 2.2 SE 17 22 9 12 1010.9 1010.8 13.8
19/08:30am 25.8 29.6 24.0 90 1.2 SSE 11 17 6 9 1011.1 - 13.8
19/08:00am 25.4 28.9 24.2 93 0.8 SSE 13 17 7 9 1010.9 - 13.8
19/07:30am 24.1 27.9 24.1 100 0.0 SSE 11 13 6 7 1010.7 - 13.8
19/07:00am 23.2 26.9 23.2 100 0.0 S 9 13 5 7 1010.3 - 13.8
19/06:30am 23.1 26.7 23.1 100 0.0 SSE 9 11 5 6 1010.0 - 13.8
19/06:00am 23.1 27.1 23.1 100 0.0 S 7 9 4 5 1009.9 1009.8 13.8
19/05:30am 23.1 27.3 23.1 100 0.0 S 6 9 3 5 1009.9 - 13.8
19/05:00am 23.0 26.9 23.0 100 0.0 S 7 9 4 5 1009.9 - 13.8
19/04:30am 23.1 27.1 23.1 100 0.0 S 7 11 4 6 1010.0 - 13.8
19/04:00am 23.2 26.9 23.2 100 0.0 S 9 13 5 7 1010.0 - 13.8
19/03:30am 23.3 27.0 23.3 100 0.0 S 9 13 5 7 1010.0 - 13.8
19/03:00am 23.3 26.3 23.3 100 0.0 SSE 13 19 7 10 1010.0 1009.9 13.8
19/02:30am 23.2 26.9 23.2 100 0.0 SSE 9 15 5 8 1010.1 - 13.8
19/02:00am 23.1 26.7 23.1 100 0.0 S 9 13 5 7 1010.0 - 13.8
19/01:30am 23.1 26.7 23.1 100 0.0 S 9 13 5 7 1010.3 - 13.8
19/01:00am 23.0 26.2 23.0 100 0.0 SSE 11 15 6 8 1010.7 - 13.6
19/12:30am 23.0 26.2 23.0 100 0.0 SSE 11 17 6 9 1011.0 - 13.6
19/12:00am 23.2 26.5 23.2 100 0.0 SSE 11 15 6 8 1010.9 1010.8 13.6
 
Date/Time
CST
Temp
°C
App
Temp
°C
Dew
Point
Rel
Hum
%
Delta-T
°C
Wind Press
QNH
hPa
Press
MSL
hPa
Rain
since 9 am
mm
Dir
 
Spd
km/h
Gust
km/h
Spd
kts
Gust
kts
18/11:30pm 23.4 26.8 23.4 100 0.0 S 11 15 6 8 1011.2 - 13.6
18/11:00pm 23.5 27.3 23.5 100 0.0 S 9 13 5 7 1011.6 - 13.6
18/10:30pm 23.6 27.5 23.6 100 0.0 S 9 13 5 7 1011.7 - 13.6
18/10:00pm 23.6 27.5 23.6 100 0.0 S 9 15 5 8 1011.9 - 13.6
18/09:30pm 23.7 27.7 23.7 100 0.0 S 9 13 5 7 1012.2 - 13.6
18/09:00pm 23.7 26.9 23.7 100 0.0 SSE 13 17 7 9 1012.2 1012.1 13.6
18/08:30pm 23.8 26.7 23.8 100 0.0 SSE 15 19 8 10 1012.2 - 13.4
18/08:00pm 23.8 27.1 23.8 100 0.0 SE 13 19 7 10 1012.0 - 13.4
18/07:30pm 23.9 27.2 23.9 100 0.0 SE 13 17 7 9 1011.7 - 13.2
18/07:00pm 24.1 27.9 24.1 100 0.0 ESE 11 13 6 7 1011.4 - 13.0
18/06:30pm 24.0 28.1 24.0 100 0.0 E 9 13 5 7 1011.4 - 12.8
18/06:06pm 23.9 27.6 23.9 100 0.0 E 11 15 6 8 1011.2 - 11.6
18/06:00pm 23.9 27.6 23.9 100 0.0 E 11 17 6 9 1011.2 1011.1 11.6
18/05:59pm 24.1 27.9 24.1 100 0.0 E 11 17 6 9 1011.2 - 11.6
18/05:35pm 24.3 28.2 24.3 100 0.0 E 11 17 6 9 1011.1 - 9.4
18/05:31pm 24.2 28.1 24.2 100 0.0 ESE 11 17 6 9 1011.1 - 9.0
18/05:30pm 24.2 28.1 24.2 100 0.0 ESE 11 17 6 9 1011.1 - 8.8
18/05:00pm 24.0 27.8 24.0 100 0.0 E 11 15 6 8 1010.6 - 8.2
18/04:30pm 24.0 27.8 24.0 100 0.0 E 11 15 6 8 1010.3 - 7.6
18/04:19pm 24.1 28.3 24.1 100 0.0 E 9 13 5 7 1010.2 - 7.2
18/04:03pm 24.0 27.4 24.0 100 0.0 ESE 13 17 7 9 1010.1 - 6.8
18/04:00pm 24.2 27.7 24.2 100 0.0 ESE 13 17 7 9 1010.0 - 6.2
18/03:37pm 24.2 26.9 24.2 100 0.0 ESE 17 24 9 13 1009.8 - 6.0
18/03:30pm 24.8 28.7 24.8 100 0.0 ESE 13 20 7 11 1009.9 - 5.8
18/03:22pm 25.1 29.5 25.1 100 0.0 ESE 11 15 6 8 1009.8 - 5.8
18/03:00pm 24.8 30.4 24.8 100 0.0 E 4 11 2 6 1009.7 1009.6 5.4
18/02:53pm 24.6 30.8 24.6 100 0.0 CALM 0 6 0 3 1009.8 - 5.4
18/02:35pm 24.3 28.6 24.3 100 0.0 ENE 9 13 5 7 1010.0 - 5.2
18/02:30pm 24.3 28.6 24.3 100 0.0 ENE 9 13 5 7 1010.1 - 5.2
18/02:25pm 24.3 28.6 24.3 100 0.0 ENE 9 13 5 7 1010.1 - 5.2
18/02:22pm 24.3 29.0 24.3 100 0.0 ENE 7 13 4 7 1010.1 - 5.2
18/02:11pm 24.3 28.6 24.3 100 0.0 E 9 11 5 6 1010.1 - 5.0
18/02:00pm 24.1 27.5 24.1 100 0.0 ENE 13 19 7 10 1010.2 - 3.6
18/01:47pm 24.3 27.9 24.3 100 0.0 ENE 13 19 7 10 1010.3 - 2.8
18/01:44pm 24.3 27.9 24.3 100 0.0 ENE 13 19 7 10 1010.4 - 2.4
18/01:30pm 24.6 28.3 24.6 100 0.0 ENE 13 17 7 9 1010.5 - 1.6
18/01:26pm 24.7 28.5 24.7 100 0.0 ENE 13 17 7 9 1010.6 - 1.4
18/01:00pm 25.1 28.7 24.4 96 0.5 ESE 13 19 7 10 1010.4 - 0.2
18/12:30pm 26.5 27.6 23.6 84 2.0 SSE 24 33 13 18 1010.6 - 0.0
18/12:00pm 27.3 30.0 24.2 83 2.1 ESE 17 24 9 13 1011.1 1011.0 0.0
18/11:30am 27.7 30.8 24.1 81 2.5 ESE 15 20 8 11 1011.4 - 0.0
18/11:00am 27.8 31.4 24.4 82 2.4 SE 13 15 7 8 1011.7 - 0.0
18/10:30am 27.6 31.0 24.0 81 2.5 SSE 13 19 7 10 1011.3 - 0.0
18/10:00am 27.6 31.0 24.0 81 2.5 SE 13 17 7 9 1011.3 - 0.0
18/09:30am 26.9 29.8 23.8 83 2.1 SE 15 20 8 11 1011.1 - 0.0
18/09:00am 26.2 29.0 23.7 86 1.7 SSE 15 20 8 11 1011.2 1011.1 0.0
18/08:30am 25.5 29.1 24.3 93 0.8 SSE 13 19 7 10 1011.4 - 0.0
18/08:00am 25.0 29.4 24.5 97 0.3 SSE 9 15 5 8 1011.0 - 0.0
18/07:30am 24.4 28.0 24.4 100 0.0 SSE 13 20 7 11 1010.8 - 0.0
18/07:00am 24.2 27.7 24.2 100 0.0 SSE 13 19 7 10 1010.3 - 0.0
18/06:30am 24.2 28.1 24.2 100 0.0 SE 11 15 6 8 1010.0 - 0.0
18/06:00am 24.4 27.9 24.2 99 0.1 SSE 13 20 7 11 1009.4 1009.3 0.0
18/05:30am 24.5 27.1 24.0 97 0.3 SSE 17 24 9 13 1009.3 - 0.0
18/05:00am 24.6 27.2 23.9 96 0.5 SSE 17 24 9 13 1009.0 - 0.0
18/04:30am 25.0 27.0 23.6 92 1.0 SSE 19 26 10 14 1009.0 - 0.0
18/04:00am 25.1 27.0 23.7 92 1.0 SSE 20 26 11 14 1009.4 - 0.0
18/03:30am 24.8 28.3 24.8 100 0.0 SSE 15 20 8 11 1009.5 - 0.0
18/03:00am 25.0 28.4 24.7 98 0.2 SSE 15 20 8 11 1009.6 1009.5 0.0
18/02:49am 25.1 28.1 24.6 97 0.3 SSE 17 24 9 13 1009.6 - 0.0
18/02:30am 25.2 28.1 24.5 96 0.5 SSE 17 26 9 14 1009.8 - 0.0
18/02:00am 25.2 27.9 24.7 97 0.3 SSE 19 26 10 14 1010.2 - 0.0
18/01:55am 25.2 27.9 24.7 97 0.3 SSE 19 26 10 14 1010.3 - 0.0
18/01:30am 25.1 28.5 24.6 97 0.3 SSE 15 24 8 13 1010.4 - 0.0
18/01:00am 25.0 27.7 24.7 98 0.2 SSE 19 26 10 14 1010.9 - 0.0
18/12:30am 25.1 28.5 24.6 97 0.3 S 15 20 8 11 1011.2 - 0.0
18/12:00am 25.2 28.4 24.3 95 0.6 S 15 22 8 12 1011.3 1011.2 0.0
 
Date/Time
CST
Temp
°C
App
Temp
°C
Dew
Point
Rel
Hum
%
Delta-T
°C
Wind Press
QNH
hPa
Press
MSL
hPa
Rain
since 9 am
mm
Dir
 
Spd
km/h
Gust
km/h
Spd
kts
Gust
kts
17/11:30pm 25.3 28.5 24.4 95 0.6 SSE 15 20 8 11 1011.3 - 0.0
17/11:00pm 25.4 28.6 24.4 94 0.7 S 15 20 8 11 1011.4 - 0.0
17/10:30pm 25.3 28.5 24.3 94 0.7 S 15 20 8 11 1011.4 - 0.0
17/10:00pm 25.1 28.2 24.2 95 0.6 SSE 15 22 8 12 1011.3 - 0.0
17/09:30pm 25.1 28.5 24.6 97 0.3 SSE 15 26 8 14 1011.5 - 0.0
17/09:00pm 25.1 28.8 25.1 100 0.0 S 15 24 8 13 1011.2 1011.1 0.0
17/08:30pm 25.2 29.6 25.0 99 0.1 S 11 17 6 9 1010.8 - 0.0
17/08:00pm 25.2 29.1 24.9 98 0.2 S 13 19 7 10 1010.3 - 0.0
17/07:30pm 25.6 29.8 24.7 95 0.6 S 11 20 6 11 1009.8 - 0.0
17/07:00pm 25.9 29.2 23.9 89 1.4 SSE 13 17 7 9 1009.7 - 0.0
17/06:30pm 26.3 28.3 23.6 85 1.8 SSE 19 26 10 14 1009.8 - 0.0
17/06:00pm 26.8 28.7 23.7 83 2.1 SSE 20 28 11 15 1009.3 1009.2 0.0
17/05:30pm 27.2 29.0 23.2 79 2.7 ESE 19 28 10 15 1009.0 - 0.0
17/05:00pm 29.1 30.7 23.3 71 4.0 E 20 28 11 15 1008.4 - 0.0
17/04:30pm 31.2 33.7 23.8 64 5.1 NE 17 24 9 13 1007.9 - 0.0
17/04:00pm 31.2 33.4 23.3 63 5.5 NNE 17 24 9 13 1007.8 - 0.0
17/03:30pm 31.6 33.7 23.7 63 5.5 N 19 26 10 14 1007.5 - 0.0
17/03:00pm 31.4 34.1 23.5 63 5.5 NNE 15 20 8 11 1007.4 1007.3 0.0
17/02:30pm 31.4 33.4 24.0 65 5.2 N 20 26 11 14 1008.0 - 0.0
17/02:00pm 32.2 34.7 24.8 65 5.2 N 20 26 11 14 1008.3 - 0.0
17/01:30pm 32.8 35.8 24.0 60 6.1 NNE 15 22 8 12 1008.5 - 0.0
17/01:00pm 32.8 35.6 23.7 58 6.3 NE 15 24 8 13 1008.7 - 0.0

Other Formats:

Comma delimited format used in spreadsheet applications
http://www.bom.gov.au/fwo/IDD60801/IDD60801.95142.axf

JavaScript Object Notation format (JSON) in row-major order
http://www.bom.gov.au/fwo/IDD60801/IDD60801.95142.json